sensor_id;sensor_type;location;lat;lon;timestamp;P1;durP1;ratioP1;P2;durP2;ratioP2
35576;SDS011;21680;52.400;16.920;2023-09-30T00:00:14;12.20;;;7.70;;
35576;SDS011;21680;52.400;16.920;2023-09-30T00:02:40;13.40;;;7.60;;
35576;SDS011;21680;52.400;16.920;2023-09-30T00:05:06;18.70;;;7.70;;
35576;SDS011;21680;52.400;16.920;2023-09-30T00:07:32;17.30;;;8.30;;
35576;SDS011;21680;52.400;16.920;2023-09-30T00:09:58;13.30;;;7.00;;
35576;SDS011;21680;52.400;16.920;2023-09-30T00:12:24;13.10;;;7.30;;
35576;SDS011;21680;52.400;16.920;2023-09-30T00:14:49;12.10;;;7.00;;
35576;SDS011;21680;52.400;16.920;2023-09-30T00:17:14;9.10;;;7.40;;
35576;SDS011;21680;52.400;16.920;2023-09-30T00:19:40;14.40;;;7.90;;
35576;SDS011;21680;52.400;16.920;2023-09-30T00:22:06;12.70;;;8.30;;
35576;SDS011;21680;52.400;16.920;2023-09-30T00:24:31;13.60;;;7.50;;
35576;SDS011;21680;52.400;16.920;2023-09-30T00:26:56;13.30;;;7.60;;
35576;SDS011;21680;52.400;16.920;2023-09-30T00:29:21;13.50;;;8.30;;
35576;SDS011;21680;52.400;16.920;2023-09-30T00:31:47;14.50;;;7.80;;
35576;SDS011;21680;52.400;16.920;2023-09-30T00:34:12;13.70;;;7.60;;
35576;SDS011;21680;52.400;16.920;2023-09-30T00:36:38;11.20;;;7.10;;
35576;SDS011;21680;52.400;16.920;2023-09-30T00:39:03;15.90;;;7.30;;
35576;SDS011;21680;52.400;16.920;2023-09-30T00:41:29;15.80;;;7.30;;
35576;SDS011;21680;52.400;16.920;2023-09-30T00:43:54;11.90;;;7.60;;
35576;SDS011;21680;52.400;16.920;2023-09-30T00:46:29;14.30;;;6.90;;
35576;SDS011;21680;52.400;16.920;2023-09-30T00:48:56;15.10;;;7.40;;
35576;SDS011;21680;52.400;16.920;2023-09-30T00:51:23;11.00;;;7.40;;
35576;SDS011;21680;52.400;16.920;2023-09-30T00:53:49;16.80;;;7.50;;
35576;SDS011;21680;52.400;16.920;2023-09-30T00:56:17;14.60;;;8.50;;
35576;SDS011;21680;52.400;16.920;2023-09-30T00:58:43;11.80;;;7.50;;
35576;SDS011;21680;52.400;16.920;2023-09-30T01:01:11;17.50;;;7.50;;
35576;SDS011;21680;52.400;16.920;2023-09-30T01:03:36;12.70;;;6.80;;
35576;SDS011;21680;52.400;16.920;2023-09-30T01:06:02;11.40;;;6.90;;
35576;SDS011;21680;52.400;16.920;2023-09-30T01:08:27;12.20;;;7.10;;
35576;SDS011;21680;52.400;16.920;2023-09-30T01:10:54;13.10;;;7.40;;
35576;SDS011;21680;52.400;16.920;2023-09-30T01:13:20;11.20;;;7.10;;
35576;SDS011;21680;52.400;16.920;2023-09-30T01:15:45;10.30;;;6.40;;
35576;SDS011;21680;52.400;16.920;2023-09-30T01:18:12;13.30;;;7.50;;
35576;SDS011;21680;52.400;16.920;2023-09-30T01:20:37;11.70;;;7.10;;
35576;SDS011;21680;52.400;16.920;2023-09-30T01:23:03;16.80;;;7.50;;
35576;SDS011;21680;52.400;16.920;2023-09-30T01:25:29;14.50;;;6.40;;
35576;SDS011;21680;52.400;16.920;2023-09-30T01:27:55;8.90;;;6.10;;
35576;SDS011;21680;52.400;16.920;2023-09-30T01:30:20;11.30;;;6.70;;
35576;SDS011;21680;52.400;16.920;2023-09-30T01:32:48;9.20;;;6.50;;
35576;SDS011;21680;52.400;16.920;2023-09-30T01:35:13;10.40;;;6.30;;
35576;SDS011;21680;52.400;16.920;2023-09-30T01:37:39;9.90;;;6.30;;
35576;SDS011;21680;52.400;16.920;2023-09-30T01:40:04;8.20;;;6.20;;
35576;SDS011;21680;52.400;16.920;2023-09-30T01:42:33;8.60;;;6.30;;
35576;SDS011;21680;52.400;16.920;2023-09-30T01:44:58;9.70;;;6.10;;
35576;SDS011;21680;52.400;16.920;2023-09-30T01:47:23;11.00;;;7.10;;
35576;SDS011;21680;52.400;16.920;2023-09-30T01:49:48;10.50;;;6.60;;
35576;SDS011;21680;52.400;16.920;2023-09-30T01:52:14;12.00;;;6.90;;
35576;SDS011;21680;52.400;16.920;2023-09-30T01:54:39;10.50;;;6.70;;
35576;SDS011;21680;52.400;16.920;2023-09-30T01:57:05;13.30;;;6.40;;
35576;SDS011;21680;52.400;16.920;2023-09-30T01:59:30;16.10;;;7.20;;
35576;SDS011;21680;52.400;16.920;2023-09-30T02:01:55;12.90;;;6.50;;
35576;SDS011;21680;52.400;16.920;2023-09-30T02:04:21;12.90;;;6.20;;
35576;SDS011;21680;52.400;16.920;2023-09-30T02:06:46;13.00;;;7.50;;
35576;SDS011;21680;52.400;16.920;2023-09-30T02:09:11;11.10;;;7.30;;
35576;SDS011;21680;52.400;16.920;2023-09-30T02:11:37;14.10;;;8.30;;
35576;SDS011;21680;52.400;16.920;2023-09-30T02:14:03;15.20;;;8.00;;
35576;SDS011;21680;52.400;16.920;2023-09-30T02:16:30;13.50;;;7.30;;
35576;SDS011;21680;52.400;16.920;2023-09-30T02:18:56;13.50;;;6.70;;
35576;SDS011;21680;52.400;16.920;2023-09-30T02:21:21;13.80;;;7.60;;
35576;SDS011;21680;52.400;16.920;2023-09-30T02:23:47;9.90;;;6.90;;
35576;SDS011;21680;52.400;16.920;2023-09-30T02:26:16;14.10;;;8.10;;
35576;SDS011;21680;52.400;16.920;2023-09-30T02:28:42;14.90;;;8.70;;
35576;SDS011;21680;52.400;16.920;2023-09-30T02:31:08;16.20;;;8.50;;
35576;SDS011;21680;52.400;16.920;2023-09-30T02:33:33;12.80;;;8.60;;
35576;SDS011;21680;52.400;16.920;2023-09-30T02:36:02;10.80;;;7.30;;
35576;SDS011;21680;52.400;16.920;2023-09-30T02:38:30;11.80;;;8.20;;
35576;SDS011;21680;52.400;16.920;2023-09-30T02:40:56;14.90;;;9.00;;
35576;SDS011;21680;52.400;16.920;2023-09-30T02:43:21;22.40;;;9.30;;
35576;SDS011;21680;52.400;16.920;2023-09-30T02:45:47;14.30;;;8.70;;
35576;SDS011;21680;52.400;16.920;2023-09-30T02:48:13;18.10;;;9.80;;
35576;SDS011;21680;52.400;16.920;2023-09-30T02:50:38;13.60;;;9.40;;
35576;SDS011;21680;52.400;16.920;2023-09-30T02:53:09;16.10;;;9.70;;
35576;SDS011;21680;52.400;16.920;2023-09-30T02:55:34;13.70;;;9.60;;
35576;SDS011;21680;52.400;16.920;2023-09-30T02:58:00;11.70;;;7.90;;
35576;SDS011;21680;52.400;16.920;2023-09-30T03:00:25;12.60;;;8.90;;
35576;SDS011;21680;52.400;16.920;2023-09-30T03:02:52;20.90;;;11.70;;
35576;SDS011;21680;52.400;16.920;2023-09-30T03:05:18;16.40;;;10.90;;
35576;SDS011;21680;52.400;16.920;2023-09-30T03:07:45;15.70;;;9.70;;
35576;SDS011;21680;52.400;16.920;2023-09-30T03:10:11;24.40;;;11.00;;
35576;SDS011;21680;52.400;16.920;2023-09-30T03:12:37;14.50;;;10.00;;
35576;SDS011;21680;52.400;16.920;2023-09-30T03:15:04;15.70;;;9.30;;
35576;SDS011;21680;52.400;16.920;2023-09-30T03:17:32;19.60;;;9.70;;
35576;SDS011;21680;52.400;16.920;2023-09-30T03:19:58;17.20;;;9.40;;
35576;SDS011;21680;52.400;16.920;2023-09-30T03:22:24;14.60;;;9.20;;
35576;SDS011;21680;52.400;16.920;2023-09-30T03:24:52;21.30;;;10.10;;
35576;SDS011;21680;52.400;16.920;2023-09-30T03:27:19;15.10;;;8.40;;
35576;SDS011;21680;52.400;16.920;2023-09-30T03:29:45;17.20;;;9.70;;
35576;SDS011;21680;52.400;16.920;2023-09-30T03:32:10;18.00;;;9.30;;
35576;SDS011;21680;52.400;16.920;2023-09-30T03:34:35;15.40;;;8.60;;
35576;SDS011;21680;52.400;16.920;2023-09-30T03:37:09;13.40;;;8.90;;
35576;SDS011;21680;52.400;16.920;2023-09-30T03:39:35;13.50;;;8.50;;
35576;SDS011;21680;52.400;16.920;2023-09-30T03:42:00;13.00;;;7.80;;
35576;SDS011;21680;52.400;16.920;2023-09-30T03:44:26;13.80;;;7.70;;
35576;SDS011;21680;52.400;16.920;2023-09-30T03:46:51;11.80;;;6.90;;
35576;SDS011;21680;52.400;16.920;2023-09-30T03:49:18;14.30;;;7.80;;
35576;SDS011;21680;52.400;16.920;2023-09-30T03:51:45;9.70;;;6.30;;
35576;SDS011;21680;52.400;16.920;2023-09-30T03:54:10;15.90;;;7.40;;
35576;SDS011;21680;52.400;16.920;2023-09-30T03:56:36;13.10;;;7.00;;
35576;SDS011;21680;52.400;16.920;2023-09-30T03:59:03;18.20;;;7.00;;
35576;SDS011;21680;52.400;16.920;2023-09-30T04:01:29;9.40;;;5.80;;
35576;SDS011;21680;52.400;16.920;2023-09-30T04:03:56;15.60;;;5.10;;
35576;SDS011;21680;52.400;16.920;2023-09-30T04:06:21;9.60;;;3.90;;
35576;SDS011;21680;52.400;16.920;2023-09-30T04:08:47;10.40;;;2.80;;
35576;SDS011;21680;52.400;16.920;2023-09-30T04:11:12;12.80;;;3.30;;
35576;SDS011;21680;52.400;16.920;2023-09-30T04:13:42;9.80;;;3.10;;
35576;SDS011;21680;52.400;16.920;2023-09-30T04:16:08;7.50;;;2.40;;
35576;SDS011;21680;52.400;16.920;2023-09-30T04:18:34;6.40;;;2.50;;
35576;SDS011;21680;52.400;16.920;2023-09-30T04:20:59;4.80;;;2.30;;
35576;SDS011;21680;52.400;16.920;2023-09-30T04:23:25;5.10;;;2.00;;
35576;SDS011;21680;52.400;16.920;2023-09-30T04:25:50;2.50;;;1.70;;
35576;SDS011;21680;52.400;16.920;2023-09-30T04:28:16;6.20;;;2.20;;
35576;SDS011;21680;52.400;16.920;2023-09-30T04:30:46;3.20;;;1.50;;
35576;SDS011;21680;52.400;16.920;2023-09-30T04:33:13;5.70;;;2.00;;
35576;SDS011;21680;52.400;16.920;2023-09-30T04:35:39;4.10;;;1.70;;
35576;SDS011;21680;52.400;16.920;2023-09-30T04:38:04;2.70;;;1.30;;
35576;SDS011;21680;52.400;16.920;2023-09-30T04:40:29;8.10;;;1.70;;
35576;SDS011;21680;52.400;16.920;2023-09-30T04:42:55;4.10;;;1.40;;
35576;SDS011;21680;52.400;16.920;2023-09-30T04:45:26;12.40;;;1.90;;
35576;SDS011;21680;52.400;16.920;2023-09-30T04:47:55;8.40;;;1.60;;
35576;SDS011;21680;52.400;16.920;2023-09-30T04:52:49;9.30;;;1.50;;
35576;SDS011;21680;52.400;16.920;2023-09-30T04:55:18;4.00;;;1.50;;
35576;SDS011;21680;52.400;16.920;2023-09-30T04:57:45;7.50;;;2.10;;
35576;SDS011;21680;52.400;16.920;2023-09-30T05:00:13;11.30;;;1.80;;
35576;SDS011;21680;52.400;16.920;2023-09-30T05:02:43;11.50;;;2.10;;
35576;SDS011;21680;52.400;16.920;2023-09-30T05:05:10;4.20;;;1.60;;
35576;SDS011;21680;52.400;16.920;2023-09-30T05:07:35;10.80;;;2.00;;
35576;SDS011;21680;52.400;16.920;2023-09-30T05:10:01;10.70;;;2.30;;
35576;SDS011;21680;52.400;16.920;2023-09-30T05:12:30;4.90;;;1.40;;
35576;SDS011;21680;52.400;16.920;2023-09-30T05:14:55;7.90;;;2.20;;
35576;SDS011;21680;52.400;16.920;2023-09-30T05:17:20;7.50;;;2.20;;
35576;SDS011;21680;52.400;16.920;2023-09-30T05:19:47;10.40;;;2.60;;
35576;SDS011;21680;52.400;16.920;2023-09-30T05:22:12;11.20;;;3.50;;
35576;SDS011;21680;52.400;16.920;2023-09-30T05:24:37;5.30;;;2.30;;
35576;SDS011;21680;52.400;16.920;2023-09-30T05:27:02;10.70;;;2.40;;
35576;SDS011;21680;52.400;16.920;2023-09-30T05:29:28;11.70;;;3.60;;
35576;SDS011;21680;52.400;16.920;2023-09-30T05:31:54;13.00;;;3.60;;
35576;SDS011;21680;52.400;16.920;2023-09-30T05:34:19;13.50;;;3.30;;
35576;SDS011;21680;52.400;16.920;2023-09-30T05:36:45;12.40;;;3.50;;
35576;SDS011;21680;52.400;16.920;2023-09-30T05:39:10;18.80;;;3.50;;
35576;SDS011;21680;52.400;16.920;2023-09-30T05:41:35;12.90;;;3.10;;
35576;SDS011;21680;52.400;16.920;2023-09-30T05:44:02;10.70;;;3.10;;
35576;SDS011;21680;52.400;16.920;2023-09-30T05:46:28;17.00;;;3.50;;
35576;SDS011;21680;52.400;16.920;2023-09-30T05:48:55;11.90;;;4.00;;
35576;SDS011;21680;52.400;16.920;2023-09-30T05:51:21;9.50;;;2.90;;
35576;SDS011;21680;52.400;16.920;2023-09-30T05:53:46;9.90;;;3.40;;
35576;SDS011;21680;52.400;16.920;2023-09-30T05:56:13;13.20;;;3.50;;
35576;SDS011;21680;52.400;16.920;2023-09-30T05:58:40;31.40;;;6.10;;
35576;SDS011;21680;52.400;16.920;2023-09-30T06:01:08;16.70;;;3.30;;
35576;SDS011;21680;52.400;16.920;2023-09-30T06:03:37;9.10;;;3.20;;
35576;SDS011;21680;52.400;16.920;2023-09-30T06:06:11;18.40;;;3.10;;
35576;SDS011;21680;52.400;16.920;2023-09-30T06:08:37;10.90;;;3.40;;
35576;SDS011;21680;52.400;16.920;2023-09-30T06:11:03;13.60;;;3.40;;
35576;SDS011;21680;52.400;16.920;2023-09-30T06:13:28;13.20;;;3.20;;
35576;SDS011;21680;52.400;16.920;2023-09-30T06:15:56;17.50;;;3.40;;
35576;SDS011;21680;52.400;16.920;2023-09-30T06:18:22;20.70;;;3.30;;
35576;SDS011;21680;52.400;16.920;2023-09-30T06:20:48;14.00;;;3.00;;
35576;SDS011;21680;52.400;16.920;2023-09-30T06:23:14;21.70;;;3.60;;
35576;SDS011;21680;52.400;16.920;2023-09-30T06:25:39;15.10;;;2.90;;
35576;SDS011;21680;52.400;16.920;2023-09-30T06:28:05;14.90;;;2.70;;
35576;SDS011;21680;52.400;16.920;2023-09-30T06:30:30;15.00;;;3.70;;
35576;SDS011;21680;52.400;16.920;2023-09-30T06:32:56;13.30;;;3.10;;
35576;SDS011;21680;52.400;16.920;2023-09-30T06:35:22;16.10;;;3.20;;
35576;SDS011;21680;52.400;16.920;2023-09-30T06:37:48;11.60;;;3.70;;
35576;SDS011;21680;52.400;16.920;2023-09-30T06:40:13;13.10;;;3.20;;
35576;SDS011;21680;52.400;16.920;2023-09-30T06:42:39;18.30;;;4.00;;
35576;SDS011;21680;52.400;16.920;2023-09-30T06:45:05;14.40;;;3.80;;
35576;SDS011;21680;52.400;16.920;2023-09-30T06:47:34;15.50;;;4.00;;
35576;SDS011;21680;52.400;16.920;2023-09-30T06:50:01;18.80;;;4.20;;
35576;SDS011;21680;52.400;16.920;2023-09-30T06:54:58;21.80;;;3.90;;
35576;SDS011;21680;52.400;16.920;2023-09-30T06:57:23;19.40;;;4.90;;
35576;SDS011;21680;52.400;16.920;2023-09-30T06:59:49;19.40;;;4.60;;
35576;SDS011;21680;52.400;16.920;2023-09-30T07:02:15;10.20;;;3.60;;
35576;SDS011;21680;52.400;16.920;2023-09-30T07:04:40;22.90;;;5.30;;
35576;SDS011;21680;52.400;16.920;2023-09-30T07:07:06;7.90;;;3.30;;
35576;SDS011;21680;52.400;16.920;2023-09-30T07:09:31;14.30;;;3.50;;
35576;SDS011;21680;52.400;16.920;2023-09-30T07:11:56;12.20;;;3.90;;
35576;SDS011;21680;52.400;16.920;2023-09-30T07:14:22;21.00;;;4.20;;
35576;SDS011;21680;52.400;16.920;2023-09-30T07:16:47;14.60;;;3.90;;
35576;SDS011;21680;52.400;16.920;2023-09-30T07:19:12;13.20;;;4.60;;
35576;SDS011;21680;52.400;16.920;2023-09-30T07:21:38;23.10;;;4.40;;
35576;SDS011;21680;52.400;16.920;2023-09-30T07:24:03;17.80;;;4.30;;
35576;SDS011;21680;52.400;16.920;2023-09-30T07:26:29;20.60;;;4.10;;
35576;SDS011;21680;52.400;16.920;2023-09-30T07:28:54;20.50;;;4.30;;
35576;SDS011;21680;52.400;16.920;2023-09-30T07:31:21;18.50;;;4.00;;
35576;SDS011;21680;52.400;16.920;2023-09-30T07:33:48;15.00;;;3.50;;
35576;SDS011;21680;52.400;16.920;2023-09-30T07:36:13;15.50;;;3.80;;
35576;SDS011;21680;52.400;16.920;2023-09-30T07:38:39;23.70;;;4.20;;
35576;SDS011;21680;52.400;16.920;2023-09-30T07:41:05;17.40;;;4.90;;
35576;SDS011;21680;52.400;16.920;2023-09-30T07:43:30;13.60;;;3.60;;
35576;SDS011;21680;52.400;16.920;2023-09-30T07:45:56;19.70;;;3.70;;
35576;SDS011;21680;52.400;16.920;2023-09-30T07:48:21;18.00;;;4.00;;
35576;SDS011;21680;52.400;16.920;2023-09-30T07:50:46;23.70;;;3.50;;
35576;SDS011;21680;52.400;16.920;2023-09-30T07:53:12;17.30;;;3.80;;
35576;SDS011;21680;52.400;16.920;2023-09-30T07:55:37;14.50;;;2.90;;
35576;SDS011;21680;52.400;16.920;2023-09-30T07:58:04;17.00;;;4.20;;
35576;SDS011;21680;52.400;16.920;2023-09-30T08:00:30;13.20;;;3.70;;
35576;SDS011;21680;52.400;16.920;2023-09-30T08:02:55;16.40;;;3.90;;
35576;SDS011;21680;52.400;16.920;2023-09-30T08:05:20;20.80;;;4.10;;
35576;SDS011;21680;52.400;16.920;2023-09-30T08:07:45;21.90;;;3.70;;
35576;SDS011;21680;52.400;16.920;2023-09-30T08:10:11;15.40;;;3.80;;
35576;SDS011;21680;52.400;16.920;2023-09-30T08:12:41;12.60;;;3.90;;
35576;SDS011;21680;52.400;16.920;2023-09-30T08:15:07;15.30;;;3.50;;
35576;SDS011;21680;52.400;16.920;2023-09-30T08:17:36;19.40;;;4.90;;
35576;SDS011;21680;52.400;16.920;2023-09-30T08:20:02;19.20;;;3.20;;
35576;SDS011;21680;52.400;16.920;2023-09-30T08:22:29;13.70;;;3.40;;
35576;SDS011;21680;52.400;16.920;2023-09-30T08:24:55;14.70;;;3.90;;
35576;SDS011;21680;52.400;16.920;2023-09-30T08:27:21;20.00;;;3.80;;
35576;SDS011;21680;52.400;16.920;2023-09-30T08:29:46;22.70;;;4.20;;
35576;SDS011;21680;52.400;16.920;2023-09-30T08:32:11;10.70;;;3.90;;
35576;SDS011;21680;52.400;16.920;2023-09-30T08:34:37;19.50;;;3.70;;
35576;SDS011;21680;52.400;16.920;2023-09-30T08:37:02;12.70;;;4.20;;
35576;SDS011;21680;52.400;16.920;2023-09-30T08:39:27;18.30;;;3.10;;
35576;SDS011;21680;52.400;16.920;2023-09-30T08:41:54;13.50;;;3.40;;
35576;SDS011;21680;52.400;16.920;2023-09-30T08:44:20;14.00;;;3.60;;
35576;SDS011;21680;52.400;16.920;2023-09-30T08:46:45;15.00;;;2.90;;
35576;SDS011;21680;52.400;16.920;2023-09-30T08:49:12;15.20;;;3.60;;
35576;SDS011;21680;52.400;16.920;2023-09-30T08:51:39;17.30;;;3.90;;
35576;SDS011;21680;52.400;16.920;2023-09-30T08:54:04;20.80;;;4.30;;
35576;SDS011;21680;52.400;16.920;2023-09-30T08:56:31;13.40;;;3.40;;
35576;SDS011;21680;52.400;16.920;2023-09-30T08:59:00;15.40;;;3.80;;
35576;SDS011;21680;52.400;16.920;2023-09-30T09:01:27;19.10;;;3.60;;
35576;SDS011;21680;52.400;16.920;2023-09-30T09:03:54;17.40;;;4.00;;
35576;SDS011;21680;52.400;16.920;2023-09-30T09:06:20;14.70;;;3.10;;
35576;SDS011;21680;52.400;16.920;2023-09-30T09:08:47;17.70;;;4.50;;
35576;SDS011;21680;52.400;16.920;2023-09-30T09:11:12;12.30;;;3.00;;
35576;SDS011;21680;52.400;16.920;2023-09-30T09:13:45;19.60;;;4.10;;
35576;SDS011;21680;52.400;16.920;2023-09-30T09:16:14;12.20;;;3.10;;
35576;SDS011;21680;52.400;16.920;2023-09-30T09:18:40;9.90;;;2.90;;
35576;SDS011;21680;52.400;16.920;2023-09-30T09:21:09;17.00;;;4.10;;
35576;SDS011;21680;52.400;16.920;2023-09-30T09:23:44;12.80;;;3.00;;
35576;SDS011;21680;52.400;16.920;2023-09-30T09:26:12;16.10;;;3.90;;
35576;SDS011;21680;52.400;16.920;2023-09-30T09:28:38;14.60;;;3.40;;
35576;SDS011;21680;52.400;16.920;2023-09-30T09:31:20;12.90;;;3.20;;
35576;SDS011;21680;52.400;16.920;2023-09-30T09:33:51;14.00;;;3.10;;
35576;SDS011;21680;52.400;16.920;2023-09-30T09:36:18;11.80;;;3.60;;
35576;SDS011;21680;52.400;16.920;2023-09-30T09:38:48;18.00;;;3.40;;
35576;SDS011;21680;52.400;16.920;2023-09-30T09:41:15;17.20;;;4.00;;
35576;SDS011;21680;52.400;16.920;2023-09-30T09:43:43;18.20;;;3.20;;
35576;SDS011;21680;52.400;16.920;2023-09-30T09:46:09;10.10;;;2.80;;
35576;SDS011;21680;52.400;16.920;2023-09-30T09:48:35;10.70;;;2.80;;
35576;SDS011;21680;52.400;16.920;2023-09-30T09:51:01;13.70;;;3.00;;
35576;SDS011;21680;52.400;16.920;2023-09-30T09:53:29;12.80;;;3.00;;
35576;SDS011;21680;52.400;16.920;2023-09-30T09:55:56;10.90;;;3.00;;
35576;SDS011;21680;52.400;16.920;2023-09-30T09:58:24;11.60;;;3.30;;
35576;SDS011;21680;52.400;16.920;2023-09-30T10:00:52;12.60;;;2.90;;
35576;SDS011;21680;52.400;16.920;2023-09-30T10:03:18;19.20;;;3.70;;
35576;SDS011;21680;52.400;16.920;2023-09-30T10:05:43;7.60;;;2.80;;
35576;SDS011;21680;52.400;16.920;2023-09-30T10:08:11;15.30;;;2.70;;
35576;SDS011;21680;52.400;16.920;2023-09-30T10:10:39;11.00;;;3.30;;
35576;SDS011;21680;52.400;16.920;2023-09-30T10:13:05;13.40;;;3.00;;
35576;SDS011;21680;52.400;16.920;2023-09-30T10:18:07;15.60;;;2.70;;
35576;SDS011;21680;52.400;16.920;2023-09-30T10:20:37;16.00;;;3.10;;
35576;SDS011;21680;52.400;16.920;2023-09-30T10:23:28;13.60;;;2.90;;
35576;SDS011;21680;52.400;16.920;2023-09-30T10:28:33;11.20;;;2.80;;
35576;SDS011;21680;52.400;16.920;2023-09-30T10:31:09;11.20;;;2.40;;
35576;SDS011;21680;52.400;16.920;2023-09-30T10:36:29;8.40;;;2.20;;
35576;SDS011;21680;52.400;16.920;2023-09-30T10:38:56;9.80;;;2.50;;
35576;SDS011;21680;52.400;16.920;2023-09-30T10:47:34;8.60;;;2.60;;
35576;SDS011;21680;52.400;16.920;2023-09-30T10:49:49;13.50;;;2.70;;
35576;SDS011;21680;52.400;16.920;2023-09-30T10:52:21;14.50;;;2.60;;
35576;SDS011;21680;52.400;16.920;2023-09-30T10:54:50;10.30;;;2.20;;
35576;SDS011;21680;52.400;16.920;2023-09-30T10:57:25;7.90;;;2.00;;
35576;SDS011;21680;52.400;16.920;2023-09-30T11:00:07;11.00;;;2.40;;
35576;SDS011;21680;52.400;16.920;2023-09-30T11:02:47;12.30;;;2.90;;
35576;SDS011;21680;52.400;16.920;2023-09-30T11:05:14;11.20;;;2.60;;
35576;SDS011;21680;52.400;16.920;2023-09-30T11:07:39;9.20;;;2.60;;
35576;SDS011;21680;52.400;16.920;2023-09-30T11:10:07;14.50;;;3.10;;
35576;SDS011;21680;52.400;16.920;2023-09-30T11:12:33;9.00;;;2.70;;
35576;SDS011;21680;52.400;16.920;2023-09-30T11:15:00;13.60;;;3.30;;
35576;SDS011;21680;52.400;16.920;2023-09-30T11:17:27;13.00;;;2.50;;
35576;SDS011;21680;52.400;16.920;2023-09-30T11:19:52;16.20;;;2.90;;
35576;SDS011;21680;52.400;16.920;2023-09-30T11:22:17;14.10;;;3.10;;
35576;SDS011;21680;52.400;16.920;2023-09-30T11:24:43;11.10;;;2.80;;
35576;SDS011;21680;52.400;16.920;2023-09-30T11:27:10;11.60;;;2.30;;
35576;SDS011;21680;52.400;16.920;2023-09-30T11:29:36;12.30;;;2.90;;
35576;SDS011;21680;52.400;16.920;2023-09-30T11:32:01;10.40;;;2.70;;
35576;SDS011;21680;52.400;16.920;2023-09-30T11:34:34;14.30;;;3.00;;
35576;SDS011;21680;52.400;16.920;2023-09-30T11:37:01;10.40;;;2.70;;
35576;SDS011;21680;52.400;16.920;2023-09-30T11:39:27;14.30;;;2.70;;
35576;SDS011;21680;52.400;16.920;2023-09-30T11:41:54;13.50;;;2.60;;
35576;SDS011;21680;52.400;16.920;2023-09-30T11:44:22;14.50;;;3.60;;
35576;SDS011;21680;52.400;16.920;2023-09-30T11:46:59;14.20;;;3.10;;
35576;SDS011;21680;52.400;16.920;2023-09-30T11:49:30;10.30;;;2.90;;
35576;SDS011;21680;52.400;16.920;2023-09-30T11:52:01;14.90;;;2.50;;
35576;SDS011;21680;52.400;16.920;2023-09-30T11:54:29;8.30;;;2.10;;
35576;SDS011;21680;52.400;16.920;2023-09-30T11:56:59;11.10;;;3.40;;
35576;SDS011;21680;52.400;16.920;2023-09-30T11:59:25;8.80;;;2.50;;
35576;SDS011;21680;52.400;16.920;2023-09-30T12:01:51;13.80;;;2.90;;
35576;SDS011;21680;52.400;16.920;2023-09-30T12:04:16;11.70;;;2.70;;
35576;SDS011;21680;52.400;16.920;2023-09-30T12:06:44;8.30;;;2.60;;
35576;SDS011;21680;52.400;16.920;2023-09-30T12:09:11;9.40;;;2.30;;
35576;SDS011;21680;52.400;16.920;2023-09-30T12:11:39;12.40;;;2.50;;
35576;SDS011;21680;52.400;16.920;2023-09-30T12:14:08;11.90;;;2.30;;
35576;SDS011;21680;52.400;16.920;2023-09-30T12:16:35;10.80;;;2.40;;
35576;SDS011;21680;52.400;16.920;2023-09-30T12:19:00;10.10;;;2.20;;
35576;SDS011;21680;52.400;16.920;2023-09-30T12:21:25;9.00;;;2.30;;
35576;SDS011;21680;52.400;16.920;2023-09-30T12:23:50;10.80;;;2.50;;
35576;SDS011;21680;52.400;16.920;2023-09-30T12:26:16;9.20;;;3.00;;
35576;SDS011;21680;52.400;16.920;2023-09-30T12:28:45;9.50;;;2.40;;
35576;SDS011;21680;52.400;16.920;2023-09-30T12:31:10;11.80;;;2.50;;
35576;SDS011;21680;52.400;16.920;2023-09-30T12:33:36;9.20;;;3.20;;
35576;SDS011;21680;52.400;16.920;2023-09-30T12:36:01;15.70;;;2.80;;
35576;SDS011;21680;52.400;16.920;2023-09-30T12:38:27;9.20;;;2.70;;
35576;SDS011;21680;52.400;16.920;2023-09-30T12:40:56;13.40;;;3.50;;
35576;SDS011;21680;52.400;16.920;2023-09-30T12:43:21;10.70;;;2.60;;
35576;SDS011;21680;52.400;16.920;2023-09-30T12:45:47;14.80;;;2.70;;
35576;SDS011;21680;52.400;16.920;2023-09-30T12:48:13;14.80;;;3.00;;
35576;SDS011;21680;52.400;16.920;2023-09-30T12:50:40;12.70;;;2.90;;
35576;SDS011;21680;52.400;16.920;2023-09-30T12:53:06;9.60;;;2.20;;
35576;SDS011;21680;52.400;16.920;2023-09-30T12:55:32;11.10;;;2.90;;
35576;SDS011;21680;52.400;16.920;2023-09-30T12:57:57;9.20;;;2.20;;
35576;SDS011;21680;52.400;16.920;2023-09-30T13:00:23;10.90;;;2.70;;
35576;SDS011;21680;52.400;16.920;2023-09-30T13:02:50;11.30;;;2.80;;
35576;SDS011;21680;52.400;16.920;2023-09-30T13:05:15;4.50;;;2.10;;
35576;SDS011;21680;52.400;16.920;2023-09-30T13:07:42;8.50;;;2.80;;
35576;SDS011;21680;52.400;16.920;2023-09-30T13:10:08;14.20;;;3.00;;
35576;SDS011;21680;52.400;16.920;2023-09-30T13:12:33;6.40;;;2.50;;
35576;SDS011;21680;52.400;16.920;2023-09-30T13:14:59;9.70;;;2.40;;
35576;SDS011;21680;52.400;16.920;2023-09-30T13:17:24;8.10;;;2.50;;
35576;SDS011;21680;52.400;16.920;2023-09-30T13:19:50;7.40;;;2.60;;
35576;SDS011;21680;52.400;16.920;2023-09-30T13:22:16;9.90;;;2.60;;
35576;SDS011;21680;52.400;16.920;2023-09-30T13:24:42;7.60;;;3.30;;
35576;SDS011;21680;52.400;16.920;2023-09-30T13:27:08;5.70;;;2.00;;
35576;SDS011;21680;52.400;16.920;2023-09-30T13:29:33;10.50;;;2.10;;
35576;SDS011;21680;52.400;16.920;2023-09-30T13:31:59;10.90;;;3.70;;
35576;SDS011;21680;52.400;16.920;2023-09-30T13:34:24;7.20;;;2.20;;
35576;SDS011;21680;52.400;16.920;2023-09-30T13:36:49;15.30;;;3.10;;
35576;SDS011;21680;52.400;16.920;2023-09-30T13:39:15;11.60;;;2.60;;
35576;SDS011;21680;52.400;16.920;2023-09-30T13:41:42;9.70;;;2.70;;
35576;SDS011;21680;52.400;16.920;2023-09-30T13:44:08;9.60;;;2.90;;
35576;SDS011;21680;52.400;16.920;2023-09-30T13:46:34;10.80;;;3.10;;
35576;SDS011;21680;52.400;16.920;2023-09-30T13:48:59;7.60;;;2.50;;
35576;SDS011;21680;52.400;16.920;2023-09-30T13:51:24;8.10;;;3.00;;
35576;SDS011;21680;52.400;16.920;2023-09-30T13:53:51;6.90;;;2.60;;
35576;SDS011;21680;52.400;16.920;2023-09-30T13:56:18;17.10;;;3.00;;
35576;SDS011;21680;52.400;16.920;2023-09-30T13:58:43;10.00;;;2.20;;
35576;SDS011;21680;52.400;16.920;2023-09-30T14:01:09;6.60;;;2.30;;
35576;SDS011;21680;52.400;16.920;2023-09-30T14:03:36;10.30;;;3.00;;
35576;SDS011;21680;52.400;16.920;2023-09-30T14:06:01;10.50;;;3.50;;
35576;SDS011;21680;52.400;16.920;2023-09-30T14:08:27;8.50;;;2.60;;
35576;SDS011;21680;52.400;16.920;2023-09-30T14:10:52;8.30;;;2.80;;
35576;SDS011;21680;52.400;16.920;2023-09-30T14:13:18;8.70;;;2.10;;
35576;SDS011;21680;52.400;16.920;2023-09-30T14:15:44;14.80;;;3.20;;
35576;SDS011;21680;52.400;16.920;2023-09-30T14:18:11;8.70;;;2.00;;
35576;SDS011;21680;52.400;16.920;2023-09-30T14:20:37;7.30;;;2.70;;
35576;SDS011;21680;52.400;16.920;2023-09-30T14:23:02;10.40;;;2.50;;
35576;SDS011;21680;52.400;16.920;2023-09-30T14:25:28;12.90;;;3.00;;
35576;SDS011;21680;52.400;16.920;2023-09-30T14:27:53;9.20;;;2.30;;
35576;SDS011;21680;52.400;16.920;2023-09-30T14:30:18;9.50;;;2.20;;
35576;SDS011;21680;52.400;16.920;2023-09-30T14:32:46;6.70;;;2.10;;
35576;SDS011;21680;52.400;16.920;2023-09-30T14:35:11;12.50;;;3.00;;
35576;SDS011;21680;52.400;16.920;2023-09-30T14:37:36;9.90;;;2.90;;